createdAt,value
2018-06-11T00:00:06.457Z,94.55
2018-06-11T00:02:36.566Z,94.17
2018-06-11T00:05:06.489Z,94.17
2018-06-11T00:07:36.337Z,94.04
2018-06-11T00:10:06.217Z,94.54
2018-06-11T00:12:35.739Z,94.85
2018-06-11T00:15:05.838Z,94.28
2018-06-11T00:17:35.617Z,94.54
2018-06-11T00:20:05.978Z,94.37
2018-06-11T00:22:36.144Z,94.67
2018-06-11T00:25:06.032Z,95.52
2018-06-11T00:27:35.902Z,95.96
2018-06-11T00:30:05.857Z,95.62
2018-06-11T00:32:35.773Z,95.87
2018-06-11T00:35:05.597Z,96.00
2018-06-11T00:37:35.487Z,95.97
2018-06-11T00:40:05.417Z,95.92
2018-06-11T00:42:35.291Z,94.98
2018-06-11T00:45:06.015Z,95.33
2018-06-11T00:47:35.846Z,95.17
2018-06-11T00:50:05.701Z,95.63
2018-06-11T00:52:35.961Z,94.95
2018-06-11T00:55:05.885Z,94.69
2018-06-11T00:57:35.733Z,94.65
2018-06-11T01:00:06.282Z,95.54
2018-06-11T01:02:36.675Z,95.22
2018-06-11T01:05:07.000Z,95.33
2018-06-11T01:07:36.976Z,95.67
2018-06-11T01:10:06.975Z,95.20
2018-06-11T01:12:36.883Z,95.88
2018-06-11T01:15:06.761Z,95.12
2018-06-11T01:17:36.510Z,94.68
2018-06-11T01:20:06.369Z,95.03
2018-06-11T01:22:36.712Z,94.04
2018-06-11T01:25:07.138Z,94.71
2018-06-11T01:27:37.019Z,94.07
2018-06-11T01:30:07.600Z,94.51
2018-06-11T01:32:38.225Z,94.88
2018-06-11T01:35:08.768Z,95.12
2018-06-11T01:37:38.672Z,96.89
2018-06-11T01:40:08.176Z,96.19
2018-06-11T01:42:37.959Z,96.54
2018-06-11T01:45:07.685Z,95.79
2018-06-11T01:47:37.189Z,95.75
2018-06-11T01:50:06.769Z,95.42
2018-06-11T01:52:36.301Z,95.56
2018-06-11T01:55:05.906Z,95.94
2018-06-11T01:57:35.829Z,95.30
2018-06-11T02:04:14.074Z,95.71
2018-06-11T02:06:43.428Z,95.01
2018-06-11T02:09:12.764Z,94.47
2018-06-11T02:11:42.173Z,95.51
2018-06-11T02:14:11.502Z,96.20
2018-06-11T02:16:40.827Z,95.70
2018-06-11T02:19:10.183Z,97.02
2018-06-11T02:21:39.523Z,96.43
2018-06-11T02:24:08.884Z,96.47
2018-06-11T02:26:38.225Z,97.50
2018-06-11T02:29:07.569Z,98.44
2018-06-11T02:31:36.906Z,96.94
2018-06-11T02:34:06.296Z,96.55
2018-06-11T02:36:35.681Z,96.78
2018-06-11T02:39:07.737Z,96.67
2018-06-11T02:41:37.178Z,96.95
2018-06-11T02:44:06.510Z,96.70
2018-06-11T02:46:35.887Z,97.38
2018-06-11T02:49:05.465Z,96.97
2018-06-11T02:51:34.812Z,97.48
2018-06-11T02:54:04.328Z,96.26
2018-06-11T02:56:33.907Z,96.21
2018-06-11T02:59:03.560Z,96.66
2018-06-11T03:01:33.186Z,96.91
2018-06-11T03:04:03.201Z,97.18
2018-06-11T03:06:32.851Z,97.83
2018-06-11T03:09:02.444Z,97.98
2018-06-11T03:11:32.145Z,97.94
2018-06-11T03:14:01.795Z,96.87
2018-06-11T03:16:31.469Z,97.78
2018-06-11T03:19:01.125Z,97.41
2018-06-11T03:21:30.797Z,97.48
2018-06-11T03:24:00.420Z,97.43
2018-06-11T03:26:30.086Z,96.79
2018-06-11T03:28:59.779Z,96.92
2018-06-11T03:31:29.395Z,97.51
2018-06-11T03:33:59.060Z,97.50
2018-06-11T03:36:28.755Z,97.22
2018-06-11T03:38:58.382Z,96.86
2018-06-11T03:41:28.149Z,97.74
2018-06-11T03:43:57.805Z,98.33
2018-06-11T03:46:27.429Z,98.26
2018-06-11T03:48:57.098Z,97.66
2018-06-11T03:51:26.686Z,96.33
2018-06-11T03:53:56.413Z,95.77
2018-06-11T03:56:25.984Z,96.71
2018-06-11T03:58:55.627Z,96.69
2018-06-11T04:01:25.264Z,96.22
2018-06-11T04:03:54.925Z,96.30
2018-06-11T04:06:24.676Z,97.07
2018-06-11T04:08:54.310Z,98.14
2018-06-11T04:11:23.967Z,97.75
2018-06-11T04:13:53.592Z,97.31
2018-06-11T04:16:23.281Z,96.35
2018-06-11T04:18:52.961Z,96.48
2018-06-11T04:21:22.528Z,95.84
2018-06-11T04:23:52.266Z,96.49
2018-06-11T04:26:21.633Z,97.35
2018-06-11T04:28:50.989Z,96.02
2018-06-11T04:31:20.384Z,96.00
2018-06-11T04:33:49.752Z,96.30
2018-06-11T04:36:19.100Z,94.91
2018-06-11T04:38:48.600Z,94.06
2018-06-11T04:41:17.937Z,93.89
2018-06-11T04:43:47.281Z,93.64
2018-06-11T04:46:16.628Z,94.87
2018-06-11T04:48:45.972Z,95.67
2018-06-11T04:51:15.309Z,95.98
2018-06-11T04:53:44.672Z,95.39
2018-06-11T04:56:14.065Z,94.98
2018-06-11T04:58:43.392Z,96.56
2018-06-11T05:01:12.736Z,96.77
2018-06-11T05:03:42.091Z,96.43
2018-06-11T05:06:11.419Z,94.93
2018-06-11T05:08:40.753Z,94.99
2018-06-11T05:11:10.089Z,96.09
2018-06-11T05:13:39.451Z,94.94
2018-06-11T05:16:08.808Z,94.22
2018-06-11T05:18:38.127Z,93.80
2018-06-11T05:21:07.481Z,92.36
2018-06-11T05:23:36.820Z,92.88
2018-06-11T05:26:05.935Z,91.66
2018-06-11T05:28:35.268Z,92.56
2018-06-11T05:31:04.634Z,91.98
2018-06-11T05:33:34.000Z,92.72
2018-06-11T05:36:03.349Z,91.57
2018-06-11T05:38:32.692Z,91.24
2018-06-11T05:41:02.036Z,91.59
2018-06-11T05:43:31.408Z,91.48
2018-06-11T05:46:00.752Z,91.21
2018-06-11T05:48:30.113Z,91.09
2018-06-11T05:50:59.458Z,90.74
2018-06-11T05:53:28.893Z,91.22
2018-06-11T05:55:58.197Z,91.72
2018-06-11T05:58:27.541Z,92.00
2018-06-11T06:00:56.888Z,90.55
2018-06-11T06:03:26.304Z,90.08
2018-06-11T06:05:55.648Z,90.91
2018-06-11T06:08:25.004Z,90.35
2018-06-11T06:10:54.344Z,89.87
2018-06-11T06:13:23.696Z,88.83
2018-06-11T06:15:53.047Z,89.59
2018-06-11T06:18:22.409Z,90.78
2018-06-11T06:20:51.791Z,90.80
2018-06-11T06:23:21.148Z,91.43
2018-06-11T06:25:50.255Z,91.15
2018-06-11T06:28:19.613Z,91.60
2018-06-11T06:30:48.936Z,92.57
2018-06-11T06:33:18.279Z,91.77
2018-06-11T06:35:47.625Z,91.00
2018-06-11T06:38:16.939Z,91.47
2018-06-11T06:40:46.915Z,90.86
2018-06-11T06:43:16.245Z,91.90
2018-06-11T06:45:45.592Z,90.08
2018-06-11T06:48:14.988Z,90.51
2018-06-11T06:50:44.320Z,90.50
2018-06-11T06:53:13.659Z,89.95
2018-06-11T06:55:42.976Z,88.82
2018-06-11T06:58:12.324Z,89.28
2018-06-11T07:00:41.654Z,88.65
2018-06-11T07:03:10.984Z,89.55
2018-06-11T07:05:40.326Z,89.32
2018-06-11T07:08:09.700Z,90.31
2018-06-11T07:10:39.027Z,90.37
2018-06-11T07:13:08.876Z,89.54
2018-06-11T07:15:38.282Z,89.31
2018-06-11T07:18:07.673Z,90.26
2018-06-11T07:20:37.024Z,88.31
2018-06-11T07:23:06.411Z,87.81
2018-06-11T07:25:35.762Z,88.63
2018-06-11T07:28:05.125Z,87.81
2018-06-11T07:30:34.457Z,87.01
2018-06-11T07:33:03.788Z,85.44
2018-06-11T07:35:33.132Z,86.22
2018-06-11T07:38:02.477Z,85.27
2018-06-11T07:40:31.833Z,84.59
2018-06-11T07:43:01.201Z,84.37
2018-06-11T07:45:34.350Z,85.93
2018-06-11T07:48:03.743Z,84.66
2018-06-11T07:50:33.073Z,83.54
2018-06-11T07:53:02.440Z,82.58
2018-06-11T07:55:31.826Z,83.01
2018-06-11T07:58:00.918Z,82.78
2018-06-11T08:00:30.272Z,81.00
2018-06-11T08:02:59.667Z,81.49
2018-06-11T08:05:28.989Z,81.39
2018-06-11T08:07:58.416Z,81.83
2018-06-11T08:10:27.736Z,81.46
2018-06-11T08:12:57.085Z,82.72
2018-06-11T08:15:26.455Z,82.77
2018-06-11T08:17:59.533Z,83.14
2018-06-11T08:20:28.880Z,83.42
2018-06-11T08:22:58.227Z,81.46
2018-06-11T08:25:27.573Z,82.06
2018-06-11T08:27:56.934Z,83.33
2018-06-11T08:30:26.011Z,83.77
2018-06-11T08:32:55.357Z,82.94
2018-06-11T08:35:24.712Z,83.58
2018-06-11T08:37:54.104Z,84.42
2018-06-11T08:40:23.468Z,83.26
2018-06-11T08:42:52.829Z,83.28
2018-06-11T08:45:22.203Z,82.04
2018-06-11T08:47:51.532Z,81.80
2018-06-11T08:50:20.913Z,82.79
2018-06-11T08:52:50.272Z,82.39
2018-06-11T08:55:19.725Z,82.62
2018-06-11T08:57:49.178Z,82.20
2018-06-11T09:00:18.555Z,82.20
2018-06-11T09:02:47.882Z,81.96
2018-06-11T09:05:17.256Z,81.56
2018-06-11T09:07:46.641Z,82.89
2018-06-11T09:10:16.052Z,82.46
2018-06-11T09:12:45.414Z,82.04
2018-06-11T09:15:14.776Z,78.91
2018-06-11T09:17:44.100Z,78.70
2018-06-11T09:20:13.457Z,79.00
2018-06-11T09:22:42.820Z,78.23
2018-06-11T09:25:12.152Z,77.52
2018-06-11T09:27:41.501Z,78.01
2018-06-11T09:30:10.857Z,77.53
2018-06-11T09:32:40.238Z,78.20
2018-06-11T09:35:09.585Z,77.77
2018-06-11T09:37:38.932Z,79.60
2018-06-11T09:40:08.279Z,77.53
2018-06-11T09:42:37.628Z,77.01
2018-06-11T09:45:06.997Z,77.96
2018-06-11T09:47:36.340Z,78.15
2018-06-11T09:50:05.732Z,77.78
2018-06-11T09:52:35.067Z,76.44
2018-06-11T09:55:04.461Z,76.15
2018-06-11T09:57:33.977Z,76.47
2018-06-11T10:00:03.417Z,77.22
2018-06-11T10:02:32.784Z,75.55
2018-06-11T10:05:02.117Z,72.13
2018-06-11T10:07:37.826Z,72.35
2018-06-11T10:10:07.265Z,72.00
2018-06-11T10:12:36.988Z,71.17
2018-06-11T10:15:06.643Z,71.95
2018-06-11T10:17:36.080Z,71.78
2018-06-11T10:20:06.308Z,70.31
2018-06-11T10:22:35.640Z,72.04
2018-06-11T10:25:05.097Z,73.28
2018-06-11T10:27:34.460Z,71.58
2018-06-11T10:30:03.868Z,72.66
2018-06-11T10:32:33.229Z,72.55
2018-06-11T10:35:02.597Z,72.59
2018-06-11T10:37:31.937Z,69.65
2018-06-11T10:40:01.324Z,68.69
2018-06-11T10:42:30.714Z,68.74
2018-06-11T10:45:00.104Z,68.37
2018-06-11T10:47:29.524Z,67.78
2018-06-11T10:49:58.872Z,68.57
2018-06-11T10:52:28.220Z,71.58
2018-06-11T10:54:57.553Z,68.59
2018-06-11T10:57:26.900Z,69.84
2018-06-11T10:59:56.262Z,67.97
2018-06-11T11:02:25.589Z,69.14
2018-06-11T11:04:54.934Z,68.47
2018-06-11T11:07:24.255Z,68.17
2018-06-11T11:09:53.624Z,66.60
2018-06-11T11:12:22.945Z,67.54
2018-06-11T11:14:52.335Z,67.36
2018-06-11T11:17:21.739Z,66.01
2018-06-11T11:19:51.062Z,65.28
2018-06-11T11:22:20.407Z,67.69
2018-06-11T11:24:49.760Z,65.80
2018-06-11T11:27:19.112Z,65.99
2018-06-11T11:29:48.545Z,65.53
2018-06-11T11:32:17.913Z,66.86
2018-06-11T11:34:47.291Z,64.12
2018-06-11T11:37:16.620Z,67.61
2018-06-11T11:39:45.991Z,67.30
2018-06-11T11:42:15.309Z,68.02
2018-06-11T11:44:44.652Z,65.73
2018-06-11T11:47:13.956Z,65.05
2018-06-11T11:49:43.315Z,66.27
2018-06-11T11:52:12.621Z,64.79
2018-06-11T11:54:41.938Z,62.63
2018-06-11T11:57:11.265Z,64.46
2018-06-11T11:59:40.605Z,62.66
2018-06-11T12:02:09.972Z,62.62
2018-06-11T12:04:39.304Z,63.21
2018-06-11T12:07:08.624Z,62.21
2018-06-11T12:09:37.965Z,61.08
2018-06-11T12:12:07.305Z,60.17
2018-06-11T12:14:36.704Z,59.12
2018-06-11T12:17:06.256Z,59.14
2018-06-11T12:19:35.563Z,61.58
2018-06-11T12:22:04.925Z,60.20
2018-06-11T12:24:34.332Z,59.53
2018-06-11T12:27:03.680Z,60.97
2018-06-11T12:29:33.005Z,60.64
2018-06-11T12:32:02.353Z,58.55
2018-06-11T12:34:31.673Z,59.89
2018-06-11T12:37:01.095Z,58.27
2018-06-11T12:39:30.423Z,57.41
2018-06-11T12:41:59.772Z,56.83
2018-06-11T12:44:29.095Z,57.27
2018-06-11T12:46:58.492Z,56.64
2018-06-11T12:49:27.832Z,58.24
2018-06-11T12:51:57.205Z,57.01
2018-06-11T12:54:26.554Z,57.15
2018-06-11T12:56:55.872Z,57.07
2018-06-11T12:59:25.197Z,59.77
2018-06-11T13:01:54.544Z,59.86
2018-06-11T13:04:23.920Z,59.02
2018-06-11T13:06:53.262Z,60.68
2018-06-11T13:09:22.580Z,59.60
2018-06-11T13:11:51.892Z,60.55
2018-06-11T13:14:21.244Z,64.19
2018-06-11T13:16:50.571Z,62.83
2018-06-11T13:19:19.900Z,62.69
2018-06-11T13:21:49.215Z,61.93
2018-06-11T13:24:18.564Z,63.68
2018-06-11T13:26:47.985Z,64.36
2018-06-11T13:29:17.300Z,62.32
2018-06-11T13:31:46.644Z,61.26
2018-06-11T13:34:15.975Z,61.29
2018-06-11T13:36:45.456Z,59.38
2018-06-11T13:39:14.804Z,58.71
2018-06-11T13:41:45.085Z,58.99
2018-06-11T13:44:14.424Z,56.69
2018-06-11T13:46:43.736Z,57.95
2018-06-11T13:49:13.068Z,57.85
2018-06-11T13:51:42.436Z,55.68
2018-06-11T13:54:11.757Z,56.67
2018-06-11T13:56:41.114Z,57.11
2018-06-11T13:59:10.502Z,57.13
2018-06-11T14:01:39.881Z,58.99
2018-06-11T14:04:09.344Z,58.82
2018-06-11T14:06:39.126Z,60.26
2018-06-11T14:09:09.481Z,59.88
2018-06-11T14:11:39.030Z,60.31
2018-06-11T14:14:08.713Z,62.40
2018-06-11T14:16:38.352Z,60.77
2018-06-11T14:19:07.958Z,61.39
2018-06-11T14:21:37.617Z,61.73
2018-06-11T14:24:07.016Z,61.63
2018-06-11T14:26:36.515Z,62.59
2018-06-11T14:29:05.967Z,61.38
2018-06-11T14:31:35.425Z,63.86
2018-06-11T14:34:04.841Z,63.73
2018-06-11T14:36:34.297Z,63.97
2018-06-11T14:39:04.034Z,66.18
2018-06-11T14:41:33.364Z,65.49
2018-06-11T14:44:02.712Z,65.64
2018-06-11T14:46:32.049Z,66.61
2018-06-11T14:49:01.377Z,67.56
2018-06-11T14:51:30.735Z,65.78
2018-06-11T14:54:00.053Z,65.46
2018-06-11T14:56:29.421Z,68.78
2018-06-11T14:58:58.884Z,66.82
2018-06-11T15:01:28.220Z,66.15
2018-06-11T15:03:57.529Z,67.16
2018-06-11T15:06:26.872Z,66.90
2018-06-11T15:08:56.208Z,66.51
2018-06-11T15:11:25.568Z,66.76
2018-06-11T15:13:54.988Z,66.37
2018-06-11T15:16:24.320Z,66.92
2018-06-11T15:18:53.704Z,66.87
2018-06-11T15:21:23.029Z,68.15
2018-06-11T15:23:52.449Z,66.98
2018-06-11T15:26:21.801Z,66.94
2018-06-11T15:28:51.146Z,66.20
2018-06-11T15:31:20.469Z,65.12
2018-06-11T15:33:49.869Z,65.98
2018-06-11T15:36:19.133Z,65.61
2018-06-11T15:38:48.525Z,65.88
2018-06-11T15:41:17.875Z,65.72
2018-06-11T15:43:47.199Z,64.87
2018-06-11T15:46:16.787Z,65.11
2018-06-11T15:48:46.108Z,64.45
2018-06-11T15:51:15.433Z,65.26
2018-06-11T15:53:44.790Z,66.29
2018-06-11T15:56:14.115Z,65.43
2018-06-11T15:58:43.436Z,66.70
2018-06-11T16:01:12.806Z,66.69
2018-06-11T16:03:42.145Z,65.10
2018-06-11T16:06:11.501Z,65.77
2018-06-11T16:08:40.843Z,66.44
2018-06-11T16:11:10.209Z,66.17
2018-06-11T16:13:39.565Z,65.58
2018-06-11T16:16:08.904Z,65.55
2018-06-11T16:18:38.377Z,65.13
2018-06-11T16:21:07.721Z,65.99
2018-06-11T16:23:37.181Z,65.57
2018-06-11T16:26:06.548Z,66.12
2018-06-11T16:28:35.893Z,65.75
2018-06-11T16:31:05.245Z,67.57
2018-06-11T16:33:34.626Z,68.18
2018-06-11T16:36:04.065Z,68.00
2018-06-11T16:38:33.384Z,68.40
2018-06-11T16:41:02.745Z,67.31
2018-06-11T16:43:32.093Z,67.45
2018-06-11T16:46:01.807Z,68.47
2018-06-11T16:48:31.176Z,68.90
2018-06-11T16:51:00.520Z,69.35
2018-06-11T16:53:29.938Z,68.20
2018-06-11T16:55:59.268Z,68.00
2018-06-11T16:58:28.607Z,69.02
2018-06-11T17:00:58.040Z,68.69
2018-06-11T17:03:27.395Z,68.77
2018-06-11T17:05:56.766Z,69.45
2018-06-11T17:08:26.171Z,68.34
2018-06-11T17:10:55.535Z,69.03
2018-06-11T17:13:24.988Z,69.75
2018-06-11T17:15:57.745Z,69.72
2018-06-11T17:18:27.273Z,69.05
2018-06-11T17:20:56.681Z,67.65
2018-06-11T17:23:26.200Z,68.73
2018-06-11T17:25:55.667Z,68.89
2018-06-11T17:28:25.581Z,68.92
2018-06-11T17:30:55.520Z,68.92
2018-06-11T17:33:24.923Z,69.79
2018-06-11T17:35:54.265Z,67.88
2018-06-11T17:38:23.672Z,67.43
2018-06-11T17:40:53.118Z,69.41
2018-06-11T17:43:22.502Z,68.13
2018-06-11T17:45:51.891Z,68.36
2018-06-11T17:48:21.246Z,68.06
2018-06-11T17:50:50.706Z,67.87
2018-06-11T17:53:20.414Z,68.29
2018-06-11T17:55:49.842Z,69.67
2018-06-11T17:58:19.294Z,69.22
2018-06-11T18:00:48.816Z,69.52
2018-06-11T18:03:18.305Z,69.68
2018-06-11T18:05:48.067Z,70.24
2018-06-11T18:08:17.984Z,68.24
2018-06-11T18:10:47.388Z,68.68
2018-06-11T18:13:16.968Z,68.54
2018-06-11T18:15:46.335Z,68.53
2018-06-11T18:18:16.246Z,68.98
2018-06-11T18:20:47.326Z,69.20
2018-06-11T18:23:19.036Z,68.77
2018-06-11T18:25:50.950Z,69.03
2018-06-11T18:28:22.868Z,70.49
2018-06-11T18:30:54.956Z,71.08
2018-06-11T18:33:27.230Z,69.52
2018-06-11T18:35:59.494Z,69.70
2018-06-11T18:38:31.537Z,69.65
2018-06-11T18:41:03.750Z,70.41
2018-06-11T18:43:36.364Z,71.45
2018-06-11T18:46:08.632Z,70.75
2018-06-11T18:48:40.784Z,70.67
2018-06-11T18:51:13.059Z,70.71
2018-06-11T18:53:45.209Z,70.53
2018-06-11T18:56:17.527Z,72.38
2018-06-11T18:58:49.691Z,72.91
2018-06-11T19:01:22.061Z,71.01
2018-06-11T19:03:54.350Z,71.99
2018-06-11T19:06:26.542Z,72.75
2018-06-11T19:08:58.738Z,72.56
2018-06-11T19:11:31.504Z,72.64
2018-06-11T19:14:03.727Z,73.72
2018-06-11T19:16:36.088Z,74.71
2018-06-11T19:19:08.508Z,74.25
2018-06-11T19:21:40.766Z,74.79
2018-06-11T19:24:13.055Z,74.65
2018-06-11T19:26:45.367Z,75.20
2018-06-11T19:29:18.118Z,74.66
2018-06-11T19:31:50.403Z,76.33
2018-06-11T19:34:22.574Z,77.84
2018-06-11T19:36:54.855Z,77.39
2018-06-11T19:39:27.077Z,77.11
2018-06-11T19:41:59.353Z,77.27
2018-06-11T19:44:31.545Z,77.15
2018-06-11T19:47:03.782Z,77.21
2018-06-11T19:49:35.953Z,76.61
2018-06-11T19:52:08.236Z,77.22
2018-06-11T19:54:40.808Z,77.15
2018-06-11T19:57:13.081Z,77.77
2018-06-11T19:59:45.287Z,78.82
2018-06-11T20:02:17.537Z,79.96
2018-06-11T20:04:49.731Z,79.48
2018-06-11T20:07:22.230Z,79.42
2018-06-11T20:09:54.425Z,78.79
2018-06-11T20:12:26.739Z,78.92
2018-06-11T20:14:58.870Z,79.10
2018-06-11T20:17:31.059Z,78.69
2018-06-11T20:20:03.944Z,77.84
2018-06-11T20:22:36.185Z,78.73
2018-06-11T20:25:08.753Z,78.90
2018-06-11T20:27:41.072Z,78.59
2018-06-11T20:30:13.314Z,78.67
2018-06-11T20:32:45.779Z,78.52
2018-06-11T20:35:17.703Z,78.12
2018-06-11T20:37:50.781Z,78.37
2018-06-11T20:40:22.580Z,78.11
2018-06-11T20:42:53.417Z,78.46
2018-06-11T20:45:23.825Z,78.63
2018-06-11T20:47:53.247Z,78.69
2018-06-11T20:50:22.991Z,78.91
2018-06-11T20:52:52.767Z,79.15
2018-06-11T20:55:22.329Z,79.79
2018-06-11T20:57:51.727Z,78.17
2018-06-11T21:00:21.098Z,79.49
2018-06-11T21:02:50.448Z,79.27
2018-06-11T21:05:19.908Z,78.81
2018-06-11T21:07:49.284Z,79.07
2018-06-11T21:10:18.688Z,78.78
2018-06-11T21:12:49.286Z,78.45
2018-06-11T21:15:18.647Z,78.09
2018-06-11T21:24:23.024Z,78.11
2018-06-11T21:27:46.398Z,77.62
2018-06-11T21:30:16.626Z,77.59
2018-06-11T21:33:02.430Z,77.47
2018-06-11T21:35:32.981Z,78.07
2018-06-11T21:38:02.963Z,77.43
2018-06-11T21:40:51.400Z,78.25
2018-06-11T21:43:21.369Z,76.82
2018-06-11T21:45:51.426Z,77.72
2018-06-11T21:48:21.430Z,77.73
2018-06-11T21:50:51.358Z,78.24
2018-06-11T21:53:21.433Z,77.78
2018-06-11T21:55:51.438Z,78.91
2018-06-11T21:58:21.186Z,78.64
2018-06-11T22:00:51.460Z,79.52
2018-06-11T22:03:21.537Z,78.75
2018-06-11T22:05:51.431Z,79.10
2018-06-11T22:11:27.361Z,79.34
2018-06-11T22:13:57.343Z,78.76
2018-06-11T22:16:27.432Z,79.02
2018-06-11T22:18:57.480Z,78.77
2018-06-11T22:21:27.707Z,78.86
2018-06-11T22:23:57.987Z,78.08
2018-06-11T22:26:35.020Z,78.19
2018-06-11T22:29:05.138Z,77.40
2018-06-11T22:31:35.549Z,77.85
2018-06-11T22:34:05.791Z,77.38
2018-06-11T22:36:36.539Z,77.55
2018-06-11T22:39:16.198Z,77.33
2018-06-11T22:41:47.171Z,77.58
2018-06-11T22:44:18.201Z,77.30
2018-06-11T22:46:48.253Z,77.43
2018-06-11T22:49:20.005Z,77.37
2018-06-11T22:51:50.106Z,77.12
2018-06-11T22:57:42.855Z,77.32
2018-06-11T23:00:13.422Z,76.88
2018-06-11T23:02:43.230Z,77.04
2018-06-11T23:05:14.093Z,77.56
2018-06-11T23:07:44.268Z,76.75
2018-06-11T23:10:14.372Z,78.14
2018-06-11T23:12:44.270Z,76.89
2018-06-11T23:15:14.386Z,77.39
2018-06-11T23:17:47.963Z,77.18
2018-06-11T23:20:17.843Z,76.64
2018-06-11T23:22:48.207Z,77.43
2018-06-11T23:25:18.314Z,77.69
2018-06-11T23:27:48.208Z,77.12
2018-06-11T23:30:18.216Z,77.62
2018-06-11T23:32:48.443Z,77.12
2018-06-11T23:35:18.390Z,76.53
2018-06-11T23:38:02.258Z,77.45
2018-06-11T23:40:32.416Z,77.09
2018-06-11T23:46:20.988Z,77.83
2018-06-11T23:49:12.587Z,77.07
2018-06-11T23:51:41.964Z,77.96
2018-06-11T23:54:11.329Z,77.00
2018-06-11T23:56:40.717Z,76.75
2018-06-11T23:59:10.106Z,77.06
